Terminal Aerodrome Forecast
Issued by NWS

Home | Current Version | Previous Version | Text Only | Print | Product List | Glossary On
Versions: 1 2 3 4 5 6 7 8 9 10 11 12 13 14 15 16 17 18 19 20 21 22 23
000
FTUS44 KLIX 170500
TAFHUM
TAF
KHUM 170521Z 1706/1806 08003KT P6SM SCT050
     FM171200 07004KT P6SM BKN025
     FM171600 08008KT P6SM BKN025
     FM172100 08012KT P6SM BKN025
     FM180500 09008KT 6SM -SHRA BR BKN008=

USA.gov is the U.S. government's official web portal to all federal, state and local government web resources and services.